sensor_id;sensor_type;location;lat;lon;timestamp;temperature;humidity
4207;DHT22;2117;47.972;7.830;2023-01-31T00:01:55;2.60;99.90
4207;DHT22;2117;47.972;7.830;2023-01-31T00:04:21;2.60;99.90
4207;DHT22;2117;47.972;7.830;2023-01-31T00:06:46;2.50;99.90
4207;DHT22;2117;47.972;7.830;2023-01-31T00:09:15;2.60;99.90
4207;DHT22;2117;47.972;7.830;2023-01-31T00:11:41;2.50;99.90
4207;DHT22;2117;47.972;7.830;2023-01-31T00:14:08;2.50;99.90
4207;DHT22;2117;47.972;7.830;2023-01-31T00:16:35;2.50;99.90
4207;DHT22;2117;47.972;7.830;2023-01-31T00:19:02;2.50;99.90
4207;DHT22;2117;47.972;7.830;2023-01-31T00:21:29;2.50;99.90
4207;DHT22;2117;47.972;7.830;2023-01-31T00:23:55;2.50;99.90
4207;DHT22;2117;47.972;7.830;2023-01-31T00:26:27;2.50;99.90
4207;DHT22;2117;47.972;7.830;2023-01-31T00:28:54;2.60;99.90
4207;DHT22;2117;47.972;7.830;2023-01-31T00:31:22;2.50;99.90
4207;DHT22;2117;47.972;7.830;2023-01-31T00:33:49;2.60;99.90
4207;DHT22;2117;47.972;7.830;2023-01-31T00:36:17;2.60;99.90
4207;DHT22;2117;47.972;7.830;2023-01-31T00:38:43;2.60;99.90
4207;DHT22;2117;47.972;7.830;2023-01-31T00:41:11;2.60;99.90
4207;DHT22;2117;47.972;7.830;2023-01-31T00:43:37;2.60;99.90
4207;DHT22;2117;47.972;7.830;2023-01-31T00:46:03;2.50;99.90
4207;DHT22;2117;47.972;7.830;2023-01-31T00:48:29;2.60;99.90
4207;DHT22;2117;47.972;7.830;2023-01-31T00:50:55;2.50;99.90
4207;DHT22;2117;47.972;7.830;2023-01-31T00:53:21;2.50;99.90
4207;DHT22;2117;47.972;7.830;2023-01-31T00:56:01;2.50;99.90
4207;DHT22;2117;47.972;7.830;2023-01-31T00:58:27;2.40;99.90
4207;DHT22;2117;47.972;7.830;2023-01-31T01:00:52;2.30;99.90
4207;DHT22;2117;47.972;7.830;2023-01-31T01:03:18;2.20;99.90
4207;DHT22;2117;47.972;7.830;2023-01-31T01:05:44;2.20;99.90
4207;DHT22;2117;47.972;7.830;2023-01-31T01:08:09;2.10;99.90
4207;DHT22;2117;47.972;7.830;2023-01-31T01:10:35;2.10;99.90
4207;DHT22;2117;47.972;7.830;2023-01-31T01:13:01;2.00;99.90
4207;DHT22;2117;47.972;7.830;2023-01-31T01:15:27;2.00;99.90
4207;DHT22;2117;47.972;7.830;2023-01-31T01:17:54;1.90;99.90
4207;DHT22;2117;47.972;7.830;2023-01-31T01:20:20;1.80;99.90
4207;DHT22;2117;47.972;7.830;2023-01-31T01:22:45;1.80;99.90
4207;DHT22;2117;47.972;7.830;2023-01-31T01:25:11;1.70;99.90
4207;DHT22;2117;47.972;7.830;2023-01-31T01:27:37;1.70;99.90
4207;DHT22;2117;47.972;7.830;2023-01-31T01:30:03;1.50;99.90
4207;DHT22;2117;47.972;7.830;2023-01-31T01:32:29;1.60;99.90
4207;DHT22;2117;47.972;7.830;2023-01-31T01:34:55;1.50;99.90
4207;DHT22;2117;47.972;7.830;2023-01-31T01:37:20;1.50;99.90
4207;DHT22;2117;47.972;7.830;2023-01-31T01:39:50;1.30;99.90
4207;DHT22;2117;47.972;7.830;2023-01-31T01:42:21;1.30;99.90
4207;DHT22;2117;47.972;7.830;2023-01-31T01:44:56;1.30;99.90
4207;DHT22;2117;47.972;7.830;2023-01-31T01:47:36;1.20;99.90
4207;DHT22;2117;47.972;7.830;2023-01-31T01:52:34;1.10;99.90
4207;DHT22;2117;47.972;7.830;2023-01-31T01:55:56;1.10;99.90
4207;DHT22;2117;47.972;7.830;2023-01-31T01:58:05;1.00;99.90
4207;DHT22;2117;47.972;7.830;2023-01-31T02:00:32;1.00;99.90
4207;DHT22;2117;47.972;7.830;2023-01-31T02:03:01;1.00;99.90
4207;DHT22;2117;47.972;7.830;2023-01-31T02:05:36;1.00;99.90
4207;DHT22;2117;47.972;7.830;2023-01-31T02:08:03;1.00;99.90
4207;DHT22;2117;47.972;7.830;2023-01-31T02:10:41;1.00;99.90
4207;DHT22;2117;47.972;7.830;2023-01-31T02:13:10;0.90;99.90
4207;DHT22;2117;47.972;7.830;2023-01-31T02:15:36;0.90;99.90
4207;DHT22;2117;47.972;7.830;2023-01-31T02:18:02;0.90;99.90
4207;DHT22;2117;47.972;7.830;2023-01-31T02:29:14;1.00;99.90
4207;DHT22;2117;47.972;7.830;2023-01-31T02:32:16;0.90;99.90
4207;DHT22;2117;47.972;7.830;2023-01-31T02:35:09;0.80;99.90
4207;DHT22;2117;47.972;7.830;2023-01-31T02:37:45;0.70;99.90
4207;DHT22;2117;47.972;7.830;2023-01-31T02:43:17;0.70;99.90
4207;DHT22;2117;47.972;7.830;2023-01-31T02:45:53;0.70;99.90
4207;DHT22;2117;47.972;7.830;2023-01-31T02:51:27;0.60;99.90
4207;DHT22;2117;47.972;7.830;2023-01-31T02:54:03;0.70;99.90
4207;DHT22;2117;47.972;7.830;2023-01-31T02:56:32;0.70;99.90
4207;DHT22;2117;47.972;7.830;2023-01-31T02:59:14;0.70;99.90
4207;DHT22;2117;47.972;7.830;2023-01-31T03:01:45;0.70;99.90
4207;DHT22;2117;47.972;7.830;2023-01-31T03:04:13;0.70;99.90
4207;DHT22;2117;47.972;7.830;2023-01-31T03:06:47;0.70;99.90
4207;DHT22;2117;47.972;7.830;2023-01-31T03:09:32;0.60;99.90
4207;DHT22;2117;47.972;7.830;2023-01-31T03:12:17;0.50;99.90
4207;DHT22;2117;47.972;7.830;2023-01-31T03:17:59;0.40;99.90
4207;DHT22;2117;47.972;7.830;2023-01-31T03:20:49;0.30;99.90
4207;DHT22;2117;47.972;7.830;2023-01-31T03:23:19;0.30;99.90
4207;DHT22;2117;47.972;7.830;2023-01-31T03:25:46;0.40;99.90
4207;DHT22;2117;47.972;7.830;2023-01-31T03:28:16;0.30;99.90
4207;DHT22;2117;47.972;7.830;2023-01-31T03:30:54;0.30;99.90
4207;DHT22;2117;47.972;7.830;2023-01-31T03:33:28;0.30;99.90
4207;DHT22;2117;47.972;7.830;2023-01-31T03:39:09;0.20;99.90
4207;DHT22;2117;47.972;7.830;2023-01-31T03:41:40;0.20;99.90
4207;DHT22;2117;47.972;7.830;2023-01-31T03:44:20;0.10;99.90
4207;DHT22;2117;47.972;7.830;2023-01-31T03:46:52;0.10;99.90
4207;DHT22;2117;47.972;7.830;2023-01-31T03:49:23;0.10;99.90
4207;DHT22;2117;47.972;7.830;2023-01-31T03:51:55;0.10;99.90
4207;DHT22;2117;47.972;7.830;2023-01-31T03:54:27;0.00;99.90
4207;DHT22;2117;47.972;7.830;2023-01-31T03:57:02;0.00;99.90
4207;DHT22;2117;47.972;7.830;2023-01-31T03:59:32;-0.10;99.90
4207;DHT22;2117;47.972;7.830;2023-01-31T04:02:00;-0.10;99.90
4207;DHT22;2117;47.972;7.830;2023-01-31T04:04:42;-0.10;99.90
4207;DHT22;2117;47.972;7.830;2023-01-31T04:07:09;-0.10;99.90
4207;DHT22;2117;47.972;7.830;2023-01-31T04:09:37;0.00;99.90
4207;DHT22;2117;47.972;7.830;2023-01-31T04:12:03;-0.10;99.90
4207;DHT22;2117;47.972;7.830;2023-01-31T04:14:29;-0.10;99.90
4207;DHT22;2117;47.972;7.830;2023-01-31T04:16:54;-0.10;99.90
4207;DHT22;2117;47.972;7.830;2023-01-31T04:19:20;-0.10;99.90
4207;DHT22;2117;47.972;7.830;2023-01-31T04:21:45;-0.10;99.90
4207;DHT22;2117;47.972;7.830;2023-01-31T04:24:11;-0.10;99.90
4207;DHT22;2117;47.972;7.830;2023-01-31T04:26:37;-0.10;99.90
4207;DHT22;2117;47.972;7.830;2023-01-31T04:29:03;-0.10;99.90
4207;DHT22;2117;47.972;7.830;2023-01-31T04:31:29;-0.10;99.90
4207;DHT22;2117;47.972;7.830;2023-01-31T04:33:55;-0.10;99.90
4207;DHT22;2117;47.972;7.830;2023-01-31T04:36:23;-0.10;99.90
4207;DHT22;2117;47.972;7.830;2023-01-31T04:38:48;0.00;99.90
4207;DHT22;2117;47.972;7.830;2023-01-31T04:41:14;-0.10;99.90
4207;DHT22;2117;47.972;7.830;2023-01-31T04:43:39;-0.10;99.90
4207;DHT22;2117;47.972;7.830;2023-01-31T04:46:05;-0.20;99.90
4207;DHT22;2117;47.972;7.830;2023-01-31T04:48:30;-0.30;99.90
4207;DHT22;2117;47.972;7.830;2023-01-31T04:50:56;-0.30;99.90
4207;DHT22;2117;47.972;7.830;2023-01-31T04:53:21;-0.30;99.90
4207;DHT22;2117;47.972;7.830;2023-01-31T04:55:47;-0.30;99.90
4207;DHT22;2117;47.972;7.830;2023-01-31T04:58:12;-0.40;99.90
4207;DHT22;2117;47.972;7.830;2023-01-31T05:00:38;-0.50;99.90
4207;DHT22;2117;47.972;7.830;2023-01-31T05:03:04;-0.50;99.90
4207;DHT22;2117;47.972;7.830;2023-01-31T05:05:31;-0.50;99.90
4207;DHT22;2117;47.972;7.830;2023-01-31T05:07:57;-0.50;99.90
4207;DHT22;2117;47.972;7.830;2023-01-31T05:10:22;-0.50;99.90
4207;DHT22;2117;47.972;7.830;2023-01-31T05:12:48;-0.50;99.90
4207;DHT22;2117;47.972;7.830;2023-01-31T05:15:13;-0.50;99.90
4207;DHT22;2117;47.972;7.830;2023-01-31T05:17:40;-0.40;99.90
4207;DHT22;2117;47.972;7.830;2023-01-31T05:20:06;-0.40;99.90
4207;DHT22;2117;47.972;7.830;2023-01-31T05:22:31;-0.40;99.90
4207;DHT22;2117;47.972;7.830;2023-01-31T05:24:57;-0.40;99.90
4207;DHT22;2117;47.972;7.830;2023-01-31T05:27:23;-0.40;99.90
4207;DHT22;2117;47.972;7.830;2023-01-31T05:29:49;-0.30;99.90
4207;DHT22;2117;47.972;7.830;2023-01-31T05:32:14;-0.30;99.90
4207;DHT22;2117;47.972;7.830;2023-01-31T05:34:42;-0.30;99.90
4207;DHT22;2117;47.972;7.830;2023-01-31T05:37:07;-0.30;99.90
4207;DHT22;2117;47.972;7.830;2023-01-31T05:39:33;-0.30;99.90
4207;DHT22;2117;47.972;7.830;2023-01-31T05:41:58;-0.30;99.90
4207;DHT22;2117;47.972;7.830;2023-01-31T05:44:24;-0.20;99.90
4207;DHT22;2117;47.972;7.830;2023-01-31T05:46:50;-0.30;99.90
4207;DHT22;2117;47.972;7.830;2023-01-31T05:49:15;-0.30;99.90
4207;DHT22;2117;47.972;7.830;2023-01-31T05:51:41;-0.40;99.90
4207;DHT22;2117;47.972;7.830;2023-01-31T05:54:07;-0.40;99.90
4207;DHT22;2117;47.972;7.830;2023-01-31T05:56:33;-0.40;99.90
4207;DHT22;2117;47.972;7.830;2023-01-31T05:58:58;-0.30;99.90
4207;DHT22;2117;47.972;7.830;2023-01-31T06:01:28;-0.30;99.90
4207;DHT22;2117;47.972;7.830;2023-01-31T06:03:54;-0.30;99.90
4207;DHT22;2117;47.972;7.830;2023-01-31T06:06:20;-0.30;99.90
4207;DHT22;2117;47.972;7.830;2023-01-31T06:08:45;-0.20;99.90
4207;DHT22;2117;47.972;7.830;2023-01-31T06:11:12;-0.10;99.90
4207;DHT22;2117;47.972;7.830;2023-01-31T06:13:38;-0.20;99.90
4207;DHT22;2117;47.972;7.830;2023-01-31T06:16:04;-0.20;99.90
4207;DHT22;2117;47.972;7.830;2023-01-31T06:18:30;-0.30;99.90
4207;DHT22;2117;47.972;7.830;2023-01-31T06:20:56;-0.40;99.90
4207;DHT22;2117;47.972;7.830;2023-01-31T06:23:22;-0.40;99.90
4207;DHT22;2117;47.972;7.830;2023-01-31T06:25:49;-0.40;99.90
4207;DHT22;2117;47.972;7.830;2023-01-31T06:28:16;-0.40;99.90
4207;DHT22;2117;47.972;7.830;2023-01-31T06:30:42;-0.30;99.90
4207;DHT22;2117;47.972;7.830;2023-01-31T06:33:07;-0.30;99.90
4207;DHT22;2117;47.972;7.830;2023-01-31T06:35:34;-0.30;99.90
4207;DHT22;2117;47.972;7.830;2023-01-31T06:37:59;-0.40;99.90
4207;DHT22;2117;47.972;7.830;2023-01-31T06:40:25;-0.40;99.90
4207;DHT22;2117;47.972;7.830;2023-01-31T06:42:51;-0.40;99.90
4207;DHT22;2117;47.972;7.830;2023-01-31T06:45:16;-0.50;99.90
4207;DHT22;2117;47.972;7.830;2023-01-31T06:47:44;-0.50;99.90
4207;DHT22;2117;47.972;7.830;2023-01-31T06:50:10;-0.60;99.90
4207;DHT22;2117;47.972;7.830;2023-01-31T06:52:36;-0.50;99.90
4207;DHT22;2117;47.972;7.830;2023-01-31T06:55:02;-0.60;99.90
4207;DHT22;2117;47.972;7.830;2023-01-31T06:57:27;-0.50;99.90
4207;DHT22;2117;47.972;7.830;2023-01-31T06:59:53;-0.50;99.90
4207;DHT22;2117;47.972;7.830;2023-01-31T07:02:19;-0.60;99.90
4207;DHT22;2117;47.972;7.830;2023-01-31T07:04:44;-0.50;99.90
4207;DHT22;2117;47.972;7.830;2023-01-31T07:07:10;-0.50;99.90
4207;DHT22;2117;47.972;7.830;2023-01-31T07:09:35;-0.50;99.90
4207;DHT22;2117;47.972;7.830;2023-01-31T07:12:02;-0.60;99.90
4207;DHT22;2117;47.972;7.830;2023-01-31T07:14:27;-0.50;99.90
4207;DHT22;2117;47.972;7.830;2023-01-31T07:16:53;-0.50;99.90
4207;DHT22;2117;47.972;7.830;2023-01-31T07:19:18;-0.50;99.90
4207;DHT22;2117;47.972;7.830;2023-01-31T07:21:44;-0.50;99.90
4207;DHT22;2117;47.972;7.830;2023-01-31T07:24:11;-0.50;99.90
4207;DHT22;2117;47.972;7.830;2023-01-31T07:26:37;-0.40;99.90
4207;DHT22;2117;47.972;7.830;2023-01-31T07:29:02;-0.40;99.90
4207;DHT22;2117;47.972;7.830;2023-01-31T07:31:28;-0.40;99.90
4207;DHT22;2117;47.972;7.830;2023-01-31T07:33:53;-0.40;99.90
4207;DHT22;2117;47.972;7.830;2023-01-31T07:36:19;-0.40;99.90
4207;DHT22;2117;47.972;7.830;2023-01-31T07:38:52;-0.40;99.90
4207;DHT22;2117;47.972;7.830;2023-01-31T07:41:18;-0.30;99.90
4207;DHT22;2117;47.972;7.830;2023-01-31T07:43:43;-0.40;99.90
4207;DHT22;2117;47.972;7.830;2023-01-31T07:46:09;-0.40;99.90
4207;DHT22;2117;47.972;7.830;2023-01-31T07:48:35;-0.40;99.90
4207;DHT22;2117;47.972;7.830;2023-01-31T07:51:02;-0.30;99.90
4207;DHT22;2117;47.972;7.830;2023-01-31T07:53:29;-0.30;99.90
4207;DHT22;2117;47.972;7.830;2023-01-31T07:56:07;-0.30;99.90
4207;DHT22;2117;47.972;7.830;2023-01-31T07:58:35;-0.30;99.90
4207;DHT22;2117;47.972;7.830;2023-01-31T08:01:01;-0.30;99.90
4207;DHT22;2117;47.972;7.830;2023-01-31T08:03:45;-0.30;99.90
4207;DHT22;2117;47.972;7.830;2023-01-31T08:06:12;-0.20;99.90
4207;DHT22;2117;47.972;7.830;2023-01-31T08:08:39;-0.20;99.90
4207;DHT22;2117;47.972;7.830;2023-01-31T08:11:05;-0.20;99.90
4207;DHT22;2117;47.972;7.830;2023-01-31T08:13:32;-0.20;99.90
4207;DHT22;2117;47.972;7.830;2023-01-31T08:15:58;-0.10;99.90
4207;DHT22;2117;47.972;7.830;2023-01-31T08:18:24;-0.10;99.90
4207;DHT22;2117;47.972;7.830;2023-01-31T08:20:49;-0.10;99.90
4207;DHT22;2117;47.972;7.830;2023-01-31T08:23:15;0.00;99.90
4207;DHT22;2117;47.972;7.830;2023-01-31T08:25:41;0.00;99.90
4207;DHT22;2117;47.972;7.830;2023-01-31T08:28:06;0.00;99.90
4207;DHT22;2117;47.972;7.830;2023-01-31T08:30:32;0.10;99.90
4207;DHT22;2117;47.972;7.830;2023-01-31T08:32:59;0.00;99.90
4207;DHT22;2117;47.972;7.830;2023-01-31T08:35:25;0.10;99.90
4207;DHT22;2117;47.972;7.830;2023-01-31T08:37:51;0.10;99.90
4207;DHT22;2117;47.972;7.830;2023-01-31T08:40:17;0.20;99.90
4207;DHT22;2117;47.972;7.830;2023-01-31T08:42:42;0.30;99.90
4207;DHT22;2117;47.972;7.830;2023-01-31T08:45:08;0.30;99.90
4207;DHT22;2117;47.972;7.830;2023-01-31T08:47:34;0.40;99.90
4207;DHT22;2117;47.972;7.830;2023-01-31T08:50:01;0.40;99.90
4207;DHT22;2117;47.972;7.830;2023-01-31T08:52:26;0.50;99.90
4207;DHT22;2117;47.972;7.830;2023-01-31T08:54:52;0.50;99.90
4207;DHT22;2117;47.972;7.830;2023-01-31T08:57:17;0.60;99.90
4207;DHT22;2117;47.972;7.830;2023-01-31T08:59:45;0.70;99.90
4207;DHT22;2117;47.972;7.830;2023-01-31T09:02:12;0.80;99.90
4207;DHT22;2117;47.972;7.830;2023-01-31T09:04:38;0.90;99.90
4207;DHT22;2117;47.972;7.830;2023-01-31T09:07:03;1.00;99.90
4207;DHT22;2117;47.972;7.830;2023-01-31T09:09:29;1.10;99.90
4207;DHT22;2117;47.972;7.830;2023-01-31T09:11:54;1.20;99.90
4207;DHT22;2117;47.972;7.830;2023-01-31T09:14:20;1.30;99.90
4207;DHT22;2117;47.972;7.830;2023-01-31T09:16:45;1.30;99.90
4207;DHT22;2117;47.972;7.830;2023-01-31T09:19:11;1.40;99.90
4207;DHT22;2117;47.972;7.830;2023-01-31T09:21:37;1.50;99.90
4207;DHT22;2117;47.972;7.830;2023-01-31T09:24:02;1.60;99.90
4207;DHT22;2117;47.972;7.830;2023-01-31T09:26:29;1.60;99.90
4207;DHT22;2117;47.972;7.830;2023-01-31T09:28:55;1.70;99.90
4207;DHT22;2117;47.972;7.830;2023-01-31T09:31:22;1.80;99.90
4207;DHT22;2117;47.972;7.830;2023-01-31T09:33:47;1.80;99.90
4207;DHT22;2117;47.972;7.830;2023-01-31T09:36:16;2.00;99.90
4207;DHT22;2117;47.972;7.830;2023-01-31T09:38:42;2.10;99.90
4207;DHT22;2117;47.972;7.830;2023-01-31T09:41:29;2.30;99.90
4207;DHT22;2117;47.972;7.830;2023-01-31T09:44:05;2.40;99.90
4207;DHT22;2117;47.972;7.830;2023-01-31T09:46:37;2.40;99.90
4207;DHT22;2117;47.972;7.830;2023-01-31T09:49:06;2.40;99.90
4207;DHT22;2117;47.972;7.830;2023-01-31T09:51:34;2.40;99.90
4207;DHT22;2117;47.972;7.830;2023-01-31T09:54:01;2.50;99.90
4207;DHT22;2117;47.972;7.830;2023-01-31T09:57:11;2.50;99.90
4207;DHT22;2117;47.972;7.830;2023-01-31T10:09:42;2.80;99.90
4207;DHT22;2117;47.972;7.830;2023-01-31T10:12:16;3.00;99.90
4207;DHT22;2117;47.972;7.830;2023-01-31T10:15:04;3.10;99.90
4207;DHT22;2117;47.972;7.830;2023-01-31T10:17:42;3.40;99.90
4207;DHT22;2117;47.972;7.830;2023-01-31T10:20:21;3.70;99.90
4207;DHT22;2117;47.972;7.830;2023-01-31T10:22:58;3.90;99.90
4207;DHT22;2117;47.972;7.830;2023-01-31T10:28:17;4.30;99.90
4207;DHT22;2117;47.972;7.830;2023-01-31T10:30:54;4.60;99.90
4207;DHT22;2117;47.972;7.830;2023-01-31T10:36:13;4.70;99.90
4207;DHT22;2117;47.972;7.830;2023-01-31T10:38:59;4.90;99.90
4207;DHT22;2117;47.972;7.830;2023-01-31T10:41:46;5.00;99.90
4207;DHT22;2117;47.972;7.830;2023-01-31T10:44:26;5.00;99.90
4207;DHT22;2117;47.972;7.830;2023-01-31T10:46:57;4.90;99.90
4207;DHT22;2117;47.972;7.830;2023-01-31T10:49:25;4.90;99.90
4207;DHT22;2117;47.972;7.830;2023-01-31T10:57:38;5.10;99.90
4207;DHT22;2117;47.972;7.830;2023-01-31T11:00:05;5.10;99.90
4207;DHT22;2117;47.972;7.830;2023-01-31T11:02:30;5.10;99.90
4207;DHT22;2117;47.972;7.830;2023-01-31T11:04:58;5.00;99.90
4207;DHT22;2117;47.972;7.830;2023-01-31T11:07:27;5.00;99.90
4207;DHT22;2117;47.972;7.830;2023-01-31T11:09:54;5.00;99.90
4207;DHT22;2117;47.972;7.830;2023-01-31T11:12:37;5.10;99.90
4207;DHT22;2117;47.972;7.830;2023-01-31T11:15:18;5.20;99.90
4207;DHT22;2117;47.972;7.830;2023-01-31T11:17:45;5.30;99.90
4207;DHT22;2117;47.972;7.830;2023-01-31T11:20:51;5.40;99.90
4207;DHT22;2117;47.972;7.830;2023-01-31T11:23:21;5.40;99.90
4207;DHT22;2117;47.972;7.830;2023-01-31T11:25:49;5.50;99.90
4207;DHT22;2117;47.972;7.830;2023-01-31T11:28:19;5.70;99.90
4207;DHT22;2117;47.972;7.830;2023-01-31T11:30:47;5.90;99.90
4207;DHT22;2117;47.972;7.830;2023-01-31T11:33:43;5.90;99.90
4207;DHT22;2117;47.972;7.830;2023-01-31T11:36:18;6.00;99.90
4207;DHT22;2117;47.972;7.830;2023-01-31T11:38:50;6.10;99.90
4207;DHT22;2117;47.972;7.830;2023-01-31T11:41:30;6.20;99.90
4207;DHT22;2117;47.972;7.830;2023-01-31T11:44:12;6.20;99.90
4207;DHT22;2117;47.972;7.830;2023-01-31T11:46:59;6.20;99.90
4207;DHT22;2117;47.972;7.830;2023-01-31T11:49:34;6.10;99.90
4207;DHT22;2117;47.972;7.830;2023-01-31T11:52:22;6.10;99.90
4207;DHT22;2117;47.972;7.830;2023-01-31T11:54:58;6.00;99.90
4207;DHT22;2117;47.972;7.830;2023-01-31T11:57:42;6.00;99.90
4207;DHT22;2117;47.972;7.830;2023-01-31T12:00:29;6.10;99.90
4207;DHT22;2117;47.972;7.830;2023-01-31T12:03:04;6.10;99.90
4207;DHT22;2117;47.972;7.830;2023-01-31T12:05:38;6.20;99.90
4207;DHT22;2117;47.972;7.830;2023-01-31T12:08:35;6.30;99.90
4207;DHT22;2117;47.972;7.830;2023-01-31T12:11:31;6.30;99.90
4207;DHT22;2117;47.972;7.830;2023-01-31T12:14:08;6.50;99.90
4207;DHT22;2117;47.972;7.830;2023-01-31T12:16:37;6.60;99.90
4207;DHT22;2117;47.972;7.830;2023-01-31T12:24:47;6.50;99.90
4207;DHT22;2117;47.972;7.830;2023-01-31T12:32:58;6.30;99.90
4207;DHT22;2117;47.972;7.830;2023-01-31T12:44:03;6.00;99.90
4207;DHT22;2117;47.972;7.830;2023-01-31T12:52:52;5.90;99.90
4207;DHT22;2117;47.972;7.830;2023-01-31T12:56:08;6.10;99.90
4207;DHT22;2117;47.972;7.830;2023-01-31T12:58:49;6.30;99.90
4207;DHT22;2117;47.972;7.830;2023-01-31T13:01:26;6.70;99.90
4207;DHT22;2117;47.972;7.830;2023-01-31T13:06:52;7.00;99.90
4207;DHT22;2117;47.972;7.830;2023-01-31T13:09:24;7.00;99.90
4207;DHT22;2117;47.972;7.830;2023-01-31T13:12:17;7.00;99.90
4207;DHT22;2117;47.972;7.830;2023-01-31T13:14:49;6.90;99.90
4207;DHT22;2117;47.972;7.830;2023-01-31T13:17:23;6.80;99.90
4207;DHT22;2117;47.972;7.830;2023-01-31T13:22:35;6.60;99.90
4207;DHT22;2117;47.972;7.830;2023-01-31T13:25:15;6.60;99.90
4207;DHT22;2117;47.972;7.830;2023-01-31T13:28:11;6.50;99.90
4207;DHT22;2117;47.972;7.830;2023-01-31T13:30:40;6.40;99.90
4207;DHT22;2117;47.972;7.830;2023-01-31T13:36:05;6.40;99.90
4207;DHT22;2117;47.972;7.830;2023-01-31T13:38:43;6.30;99.90
4207;DHT22;2117;47.972;7.830;2023-01-31T13:41:30;6.30;99.90
4207;DHT22;2117;47.972;7.830;2023-01-31T13:43:56;6.20;99.90
4207;DHT22;2117;47.972;7.830;2023-01-31T13:46:34;6.20;99.90
4207;DHT22;2117;47.972;7.830;2023-01-31T13:52:21;6.10;99.90
4207;DHT22;2117;47.972;7.830;2023-01-31T13:55:04;6.20;99.90
4207;DHT22;2117;47.972;7.830;2023-01-31T13:57:34;6.10;99.90
4207;DHT22;2117;47.972;7.830;2023-01-31T14:00:42;6.10;99.90
4207;DHT22;2117;47.972;7.830;2023-01-31T14:03:13;6.10;99.90
4207;DHT22;2117;47.972;7.830;2023-01-31T14:16:35;6.40;99.90
4207;DHT22;2117;47.972;7.830;2023-01-31T14:19:58;6.40;99.90
4207;DHT22;2117;47.972;7.830;2023-01-31T14:22:11;6.50;99.90
4207;DHT22;2117;47.972;7.830;2023-01-31T14:27:22;6.60;99.90
4207;DHT22;2117;47.972;7.830;2023-01-31T14:32:43;6.60;99.90
4207;DHT22;2117;47.972;7.830;2023-01-31T14:52:35;6.10;99.90
4207;DHT22;2117;47.972;7.830;2023-01-31T14:55:32;6.10;99.90
4207;DHT22;2117;47.972;7.830;2023-01-31T14:58:01;6.10;99.90
4207;DHT22;2117;47.972;7.830;2023-01-31T15:00:32;6.00;99.90
4207;DHT22;2117;47.972;7.830;2023-01-31T15:03:06;6.00;99.90
4207;DHT22;2117;47.972;7.830;2023-01-31T15:08:05;6.30;99.90
4207;DHT22;2117;47.972;7.830;2023-01-31T15:18:34;7.90;99.90
4207;DHT22;2117;47.972;7.830;2023-01-31T15:21:03;8.10;99.90
4207;DHT22;2117;47.972;7.830;2023-01-31T15:23:31;8.40;99.90
4207;DHT22;2117;47.972;7.830;2023-01-31T15:25:58;8.40;99.90
4207;DHT22;2117;47.972;7.830;2023-01-31T15:28:28;8.10;99.90
4207;DHT22;2117;47.972;7.830;2023-01-31T15:31:01;7.60;99.90
4207;DHT22;2117;47.972;7.830;2023-01-31T15:33:35;7.00;99.90
4207;DHT22;2117;47.972;7.830;2023-01-31T15:36:08;6.60;99.90
4207;DHT22;2117;47.972;7.830;2023-01-31T15:38:49;6.40;99.90
4207;DHT22;2117;47.972;7.830;2023-01-31T15:41:20;6.20;99.90
4207;DHT22;2117;47.972;7.830;2023-01-31T15:43:48;6.10;99.90
4207;DHT22;2117;47.972;7.830;2023-01-31T15:46:31;6.00;99.90
4207;DHT22;2117;47.972;7.830;2023-01-31T15:48:59;6.00;99.90
4207;DHT22;2117;47.972;7.830;2023-01-31T15:51:25;6.00;99.90
4207;DHT22;2117;47.972;7.830;2023-01-31T15:54:05;6.00;99.90
4207;DHT22;2117;47.972;7.830;2023-01-31T15:56:34;5.90;99.90
4207;DHT22;2117;47.972;7.830;2023-01-31T15:59:05;5.80;99.90
4207;DHT22;2117;47.972;7.830;2023-01-31T16:01:34;5.80;99.90
4207;DHT22;2117;47.972;7.830;2023-01-31T16:04:00;5.80;99.90
4207;DHT22;2117;47.972;7.830;2023-01-31T16:06:36;5.70;99.90
4207;DHT22;2117;47.972;7.830;2023-01-31T16:09:04;5.70;99.90
4207;DHT22;2117;47.972;7.830;2023-01-31T16:11:32;5.70;99.90
4207;DHT22;2117;47.972;7.830;2023-01-31T16:14:04;5.70;99.90
4207;DHT22;2117;47.972;7.830;2023-01-31T16:16:33;5.70;99.90
4207;DHT22;2117;47.972;7.830;2023-01-31T16:18:59;5.60;99.90
4207;DHT22;2117;47.972;7.830;2023-01-31T16:21:42;5.60;99.90
4207;DHT22;2117;47.972;7.830;2023-01-31T16:24:17;5.60;99.90
4207;DHT22;2117;47.972;7.830;2023-01-31T16:27:13;5.60;99.90
4207;DHT22;2117;47.972;7.830;2023-01-31T16:29:44;5.60;99.90
4207;DHT22;2117;47.972;7.830;2023-01-31T16:32:20;5.70;99.90
4207;DHT22;2117;47.972;7.830;2023-01-31T16:35:07;5.70;99.90
4207;DHT22;2117;47.972;7.830;2023-01-31T16:37:39;5.70;99.90
4207;DHT22;2117;47.972;7.830;2023-01-31T16:42:41;5.80;99.90
4207;DHT22;2117;47.972;7.830;2023-01-31T16:45:27;5.80;99.90
4207;DHT22;2117;47.972;7.830;2023-01-31T16:47:52;5.80;99.90
4207;DHT22;2117;47.972;7.830;2023-01-31T16:55:30;5.70;99.90
4207;DHT22;2117;47.972;7.830;2023-01-31T16:57:55;5.70;99.90
4207;DHT22;2117;47.972;7.830;2023-01-31T17:02:50;5.70;99.90
4207;DHT22;2117;47.972;7.830;2023-01-31T17:07:43;5.70;99.90
4207;DHT22;2117;47.972;7.830;2023-01-31T17:12:43;5.70;99.90
4207;DHT22;2117;47.972;7.830;2023-01-31T17:15:14;5.70;99.90
4207;DHT22;2117;47.972;7.830;2023-01-31T17:17:40;5.80;99.90
4207;DHT22;2117;47.972;7.830;2023-01-31T17:20:06;5.80;99.90
4207;DHT22;2117;47.972;7.830;2023-01-31T17:22:32;5.80;99.90
4207;DHT22;2117;47.972;7.830;2023-01-31T17:24:58;5.80;99.90
4207;DHT22;2117;47.972;7.830;2023-01-31T17:27:23;5.80;99.90
4207;DHT22;2117;47.972;7.830;2023-01-31T17:29:49;5.70;99.90
4207;DHT22;2117;47.972;7.830;2023-01-31T17:32:17;5.70;99.90
4207;DHT22;2117;47.972;7.830;2023-01-31T17:34:43;5.70;99.90
4207;DHT22;2117;47.972;7.830;2023-01-31T17:37:11;5.70;99.90
4207;DHT22;2117;47.972;7.830;2023-01-31T17:39:37;5.70;99.90
4207;DHT22;2117;47.972;7.830;2023-01-31T17:42:03;5.60;99.90
4207;DHT22;2117;47.972;7.830;2023-01-31T17:44:29;5.70;99.90
4207;DHT22;2117;47.972;7.830;2023-01-31T17:46:55;5.70;99.90
4207;DHT22;2117;47.972;7.830;2023-01-31T17:49:20;5.60;99.90
4207;DHT22;2117;47.972;7.830;2023-01-31T17:51:46;5.60;99.90
4207;DHT22;2117;47.972;7.830;2023-01-31T17:54:11;5.60;99.90
4207;DHT22;2117;47.972;7.830;2023-01-31T17:56:37;5.60;99.90
4207;DHT22;2117;47.972;7.830;2023-01-31T17:59:03;5.60;99.90
4207;DHT22;2117;47.972;7.830;2023-01-31T18:01:30;5.50;99.90
4207;DHT22;2117;47.972;7.830;2023-01-31T18:03:56;5.60;99.90
4207;DHT22;2117;47.972;7.830;2023-01-31T18:06:25;5.60;99.90
4207;DHT22;2117;47.972;7.830;2023-01-31T18:08:50;5.60;99.90
4207;DHT22;2117;47.972;7.830;2023-01-31T18:11:16;5.60;99.90
4207;DHT22;2117;47.972;7.830;2023-01-31T18:13:42;5.60;99.90
4207;DHT22;2117;47.972;7.830;2023-01-31T18:16:14;5.60;99.90
4207;DHT22;2117;47.972;7.830;2023-01-31T18:18:41;5.60;99.90
4207;DHT22;2117;47.972;7.830;2023-01-31T18:21:16;5.60;99.90
4207;DHT22;2117;47.972;7.830;2023-01-31T18:23:42;5.60;99.90
4207;DHT22;2117;47.972;7.830;2023-01-31T18:26:09;5.60;99.90
4207;DHT22;2117;47.972;7.830;2023-01-31T18:28:36;5.70;99.90
4207;DHT22;2117;47.972;7.830;2023-01-31T18:31:03;5.70;99.90
4207;DHT22;2117;47.972;7.830;2023-01-31T18:33:29;5.70;99.90
4207;DHT22;2117;47.972;7.830;2023-01-31T18:35:59;5.70;99.90
4207;DHT22;2117;47.972;7.830;2023-01-31T18:38:27;5.70;99.90
4207;DHT22;2117;47.972;7.830;2023-01-31T18:40:53;6.00;99.90
4207;DHT22;2117;47.972;7.830;2023-01-31T18:43:19;6.40;99.90
4207;DHT22;2117;47.972;7.830;2023-01-31T18:45:45;6.60;99.90
4207;DHT22;2117;47.972;7.830;2023-01-31T18:48:11;6.50;99.90
4207;DHT22;2117;47.972;7.830;2023-01-31T18:50:36;6.20;99.90
4207;DHT22;2117;47.972;7.830;2023-01-31T18:53:03;6.20;99.90
4207;DHT22;2117;47.972;7.830;2023-01-31T18:55:28;6.10;99.90
4207;DHT22;2117;47.972;7.830;2023-01-31T18:57:54;6.00;99.90